sensor_id;sensor_type;location;lat;lon;timestamp;pressure;altitude;pressure_sealevel;temperature;humidity
51195;BME280;37259;49.972;19.850;2024-02-26T00:00:30;97758.3333333333;;;6.69;73.21
51195;BME280;37259;49.972;19.850;2024-02-26T00:01:31;97758.3333333333;;;6.67;73.19
51195;BME280;37259;49.972;19.850;2024-02-26T00:02:29;97761.6666666667;;;6.64;73.35
51195;BME280;37259;49.972;19.850;2024-02-26T00:03:29;97761.6666666667;;;6.63;73.82
51195;BME280;37259;49.972;19.850;2024-02-26T00:04:29;97758.3333333333;;;6.61;74.03
51195;BME280;37259;49.972;19.850;2024-02-26T00:05:29;97758.3333333333;;;6.58;74.46
51195;BME280;37259;49.972;19.850;2024-02-26T00:06:29;97756.6666666667;;;6.54;76.19
51195;BME280;37259;49.972;19.850;2024-02-26T00:07:29;97755;;;6.56;75.89
51195;BME280;37259;49.972;19.850;2024-02-26T00:08:29;97753.3333333333;;;6.56;75.97
51195;BME280;37259;49.972;19.850;2024-02-26T00:09:29;97760;;;6.54;75.73
51195;BME280;37259;49.972;19.850;2024-02-26T00:10:29;97755;;;6.54;75.47
51195;BME280;37259;49.972;19.850;2024-02-26T00:11:29;97755;;;6.52;75.25
51195;BME280;37259;49.972;19.850;2024-02-26T00:12:29;97755;;;6.48;75.54
51195;BME280;37259;49.972;19.850;2024-02-26T00:13:29;97751.6666666667;;;6.45;75.4
51195;BME280;37259;49.972;19.850;2024-02-26T00:14:29;97753.3333333333;;;6.41;75.24
51195;BME280;37259;49.972;19.850;2024-02-26T00:15:29;97751.6666666667;;;6.41;75.04
51195;BME280;37259;49.972;19.850;2024-02-26T00:16:30;97750;;;6.37;74.91
51195;BME280;37259;49.972;19.850;2024-02-26T00:17:29;97750;;;6.35;74.8
51195;BME280;37259;49.972;19.850;2024-02-26T00:18:29;97750;;;6.33;74.89
51195;BME280;37259;49.972;19.850;2024-02-26T00:19:29;97755;;;6.3;74.98
51195;BME280;37259;49.972;19.850;2024-02-26T00:20:29;97758.3333333333;;;6.29;74.79
51195;BME280;37259;49.972;19.850;2024-02-26T00:21:29;97758.3333333333;;;6.24;74.69
51195;BME280;37259;49.972;19.850;2024-02-26T00:22:29;97756.6666666667;;;6.22;74.78
51195;BME280;37259;49.972;19.850;2024-02-26T00:23:29;97755;;;6.19;74.95
51195;BME280;37259;49.972;19.850;2024-02-26T00:24:29;97756.6666666667;;;6.16;75.08
51195;BME280;37259;49.972;19.850;2024-02-26T00:25:29;97755;;;6.13;76.22
51195;BME280;37259;49.972;19.850;2024-02-26T00:26:29;97750;;;6.08;76.02
51195;BME280;37259;49.972;19.850;2024-02-26T00:27:29;97748.3333333333;;;6.02;76.07
51195;BME280;37259;49.972;19.850;2024-02-26T00:28:29;97750;;;5.99;76.47
51195;BME280;37259;49.972;19.850;2024-02-26T00:29:29;97750;;;5.93;76.34
51195;BME280;37259;49.972;19.850;2024-02-26T00:30:29;97751.6666666667;;;5.88;76.27
51195;BME280;37259;49.972;19.850;2024-02-26T00:31:29;97753.3333333333;;;5.85;76.46
51195;BME280;37259;49.972;19.850;2024-02-26T00:32:29;97750;;;5.84;76.3
51195;BME280;37259;49.972;19.850;2024-02-26T00:33:29;97750;;;5.77;77.26
51195;BME280;37259;49.972;19.850;2024-02-26T00:34:29;97750;;;5.69;77.6
51195;BME280;37259;49.972;19.850;2024-02-26T00:35:29;97751.6666666667;;;5.67;77.17
51195;BME280;37259;49.972;19.850;2024-02-26T00:36:29;97751.6666666667;;;5.66;77.14
51195;BME280;37259;49.972;19.850;2024-02-26T00:37:29;97751.6666666667;;;5.63;77.05
51195;BME280;37259;49.972;19.850;2024-02-26T00:38:29;97751.6666666667;;;5.59;76.99
51195;BME280;37259;49.972;19.850;2024-02-26T00:39:29;97751.6666666667;;;5.57;76.8
51195;BME280;37259;49.972;19.850;2024-02-26T00:40:29;97751.6666666667;;;5.55;76.79
51195;BME280;37259;49.972;19.850;2024-02-26T00:41:29;97750;;;5.52;76.71
51195;BME280;37259;49.972;19.850;2024-02-26T00:42:29;97753.3333333333;;;5.5;76.61
51195;BME280;37259;49.972;19.850;2024-02-26T00:43:29;97751.6666666667;;;5.49;76.54
51195;BME280;37259;49.972;19.850;2024-02-26T00:44:29;97751.6666666667;;;5.44;76.52
51195;BME280;37259;49.972;19.850;2024-02-26T00:45:29;97751.6666666667;;;5.42;76.42
51195;BME280;37259;49.972;19.850;2024-02-26T00:46:29;97748.3333333333;;;5.36;76.36
51195;BME280;37259;49.972;19.850;2024-02-26T00:47:29;97743.3333333333;;;5.32;76.33
51195;BME280;37259;49.972;19.850;2024-02-26T00:48:29;97745;;;5.31;76.48
51195;BME280;37259;49.972;19.850;2024-02-26T00:49:29;97740;;;5.29;76.86
51195;BME280;37259;49.972;19.850;2024-02-26T00:50:29;97733.3333333333;;;5.26;76.82
51195;BME280;37259;49.972;19.850;2024-02-26T00:51:29;97735;;;5.21;76.87
51195;BME280;37259;49.972;19.850;2024-02-26T00:52:29;97738.3333333333;;;5.2;76.85
51195;BME280;37259;49.972;19.850;2024-02-26T00:53:29;97736.6666666667;;;5.18;76.96
51195;BME280;37259;49.972;19.850;2024-02-26T00:54:29;97736.6666666667;;;5.15;77.22
51195;BME280;37259;49.972;19.850;2024-02-26T00:55:29;97736.6666666667;;;5.13;77.52
51195;BME280;37259;49.972;19.850;2024-02-26T00:56:29;97738.3333333333;;;5.11;77.63
51195;BME280;37259;49.972;19.850;2024-02-26T00:57:29;97735;;;5.06;78.22
51195;BME280;37259;49.972;19.850;2024-02-26T00:58:29;97736.6666666667;;;5.02;77.93
51195;BME280;37259;49.972;19.850;2024-02-26T00:59:29;97736.6666666667;;;4.99;77.8
51195;BME280;37259;49.972;19.850;2024-02-26T01:00:29;97735;;;4.99;77.84
51195;BME280;37259;49.972;19.850;2024-02-26T01:01:29;97738.3333333333;;;4.94;77.75
51195;BME280;37259;49.972;19.850;2024-02-26T01:02:29;97736.6666666667;;;4.91;77.58
51195;BME280;37259;49.972;19.850;2024-02-26T01:03:29;97738.3333333333;;;4.9;77.67
51195;BME280;37259;49.972;19.850;2024-02-26T01:04:30;97740;;;4.89;77.59
51195;BME280;37259;49.972;19.850;2024-02-26T01:05:29;97740;;;4.86;77.61
51195;BME280;37259;49.972;19.850;2024-02-26T01:06:29;97740;;;4.81;77.58
51195;BME280;37259;49.972;19.850;2024-02-26T01:07:29;97736.6666666667;;;4.79;77.54
51195;BME280;37259;49.972;19.850;2024-02-26T01:08:29;97736.6666666667;;;4.76;77.5
51195;BME280;37259;49.972;19.850;2024-02-26T01:09:29;97735;;;4.71;77.59
51195;BME280;37259;49.972;19.850;2024-02-26T01:10:29;97735;;;4.72;77.67
51195;BME280;37259;49.972;19.850;2024-02-26T01:11:29;97735;;;4.66;78.25
51195;BME280;37259;49.972;19.850;2024-02-26T01:12:29;97733.3333333333;;;4.63;78.42
51195;BME280;37259;49.972;19.850;2024-02-26T01:13:29;97730;;;4.57;78.68
51195;BME280;37259;49.972;19.850;2024-02-26T01:14:29;97730;;;4.59;78.68
51195;BME280;37259;49.972;19.850;2024-02-26T01:15:29;97731.6666666667;;;4.55;78.79
51195;BME280;37259;49.972;19.850;2024-02-26T01:16:29;97730;;;4.51;79.19
51195;BME280;37259;49.972;19.850;2024-02-26T01:17:29;97736.6666666667;;;4.5;79.13
51195;BME280;37259;49.972;19.850;2024-02-26T01:18:29;97735;;;4.49;79.31
51195;BME280;37259;49.972;19.850;2024-02-26T01:19:29;97735;;;4.49;79.93
51195;BME280;37259;49.972;19.850;2024-02-26T01:20:29;97741.6666666667;;;4.46;79.84
51195;BME280;37259;49.972;19.850;2024-02-26T01:21:29;97738.3333333333;;;4.47;80.09
51195;BME280;37259;49.972;19.850;2024-02-26T01:22:29;97738.3333333333;;;4.43;79.9
51195;BME280;37259;49.972;19.850;2024-02-26T01:23:29;97740;;;4.4;79.68
51195;BME280;37259;49.972;19.850;2024-02-26T01:24:29;97743.3333333333;;;4.39;79.77
51195;BME280;37259;49.972;19.850;2024-02-26T01:25:29;97745;;;4.36;79.6
51195;BME280;37259;49.972;19.850;2024-02-26T01:26:29;97743.3333333333;;;4.34;79.65
51195;BME280;37259;49.972;19.850;2024-02-26T01:27:29;97746.6666666667;;;4.32;79.73
51195;BME280;37259;49.972;19.850;2024-02-26T01:28:29;97748.3333333333;;;4.3;79.81
51195;BME280;37259;49.972;19.850;2024-02-26T01:29:29;97748.3333333333;;;4.27;80.1
51195;BME280;37259;49.972;19.850;2024-02-26T01:30:29;97748.3333333333;;;4.27;80.6
51195;BME280;37259;49.972;19.850;2024-02-26T01:31:29;97751.6666666667;;;4.25;80.31
51195;BME280;37259;49.972;19.850;2024-02-26T01:32:29;97748.3333333333;;;4.21;80.36
51195;BME280;37259;49.972;19.850;2024-02-26T01:33:29;97750;;;4.19;80.4
51195;BME280;37259;49.972;19.850;2024-02-26T01:34:29;97748.3333333333;;;4.2;80.39
51195;BME280;37259;49.972;19.850;2024-02-26T01:35:29;97748.3333333333;;;4.18;80.68
51195;BME280;37259;49.972;19.850;2024-02-26T01:36:29;97748.3333333333;;;4.16;80.64
51195;BME280;37259;49.972;19.850;2024-02-26T01:37:29;97748.3333333333;;;4.14;80.74
51195;BME280;37259;49.972;19.850;2024-02-26T01:38:29;97746.6666666667;;;4.16;81
51195;BME280;37259;49.972;19.850;2024-02-26T01:39:29;97743.3333333333;;;4.14;80.89
51195;BME280;37259;49.972;19.850;2024-02-26T01:40:29;97743.3333333333;;;4.12;81.05
51195;BME280;37259;49.972;19.850;2024-02-26T01:41:29;97741.6666666667;;;4.11;81.1
51195;BME280;37259;49.972;19.850;2024-02-26T01:42:30;97741.6666666667;;;4.1;81.3
51195;BME280;37259;49.972;19.850;2024-02-26T01:43:29;97740;;;4.12;81.59
51195;BME280;37259;49.972;19.850;2024-02-26T01:44:29;97740;;;4.1;81.7
51195;BME280;37259;49.972;19.850;2024-02-26T01:45:29;97741.6666666667;;;4.11;81.83
51195;BME280;37259;49.972;19.850;2024-02-26T01:46:29;97740;;;4.08;81.73
51195;BME280;37259;49.972;19.850;2024-02-26T01:47:29;97741.6666666667;;;4.09;81.79
51195;BME280;37259;49.972;19.850;2024-02-26T01:48:29;97743.3333333333;;;4.1;81.93
51195;BME280;37259;49.972;19.850;2024-02-26T01:49:30;97745;;;4.12;82.27
51195;BME280;37259;49.972;19.850;2024-02-26T01:50:29;97741.6666666667;;;4.12;82.29
51195;BME280;37259;49.972;19.850;2024-02-26T01:51:32;97745;;;4.13;82.46
51195;BME280;37259;49.972;19.850;2024-02-26T01:52:29;97745;;;4.12;82.54
51195;BME280;37259;49.972;19.850;2024-02-26T01:53:29;97740;;;4.15;82.62
51195;BME280;37259;49.972;19.850;2024-02-26T01:54:29;97745;;;4.13;82.75
51195;BME280;37259;49.972;19.850;2024-02-26T01:55:29;97745;;;4.13;82.69
51195;BME280;37259;49.972;19.850;2024-02-26T01:56:29;97745;;;4.14;82.65
51195;BME280;37259;49.972;19.850;2024-02-26T01:57:29;97741.6666666667;;;4.12;82.79
51195;BME280;37259;49.972;19.850;2024-02-26T01:58:29;97743.3333333333;;;4.15;82.81
51195;BME280;37259;49.972;19.850;2024-02-26T01:59:29;97741.6666666667;;;4.13;82.9
51195;BME280;37259;49.972;19.850;2024-02-26T02:00:29;97740;;;4.14;83.05
51195;BME280;37259;49.972;19.850;2024-02-26T02:01:30;97740;;;4.12;82.9
51195;BME280;37259;49.972;19.850;2024-02-26T02:02:29;97740;;;4.14;83.01
51195;BME280;37259;49.972;19.850;2024-02-26T02:03:29;97741.6666666667;;;4.13;83.05
51195;BME280;37259;49.972;19.850;2024-02-26T02:04:29;97741.6666666667;;;4.12;83.25
51195;BME280;37259;49.972;19.850;2024-02-26T02:05:29;97740;;;4.13;83.36
51195;BME280;37259;49.972;19.850;2024-02-26T02:06:29;97741.6666666667;;;4.13;83.39
51195;BME280;37259;49.972;19.850;2024-02-26T02:07:30;97738.3333333333;;;4.13;83.36
51195;BME280;37259;49.972;19.850;2024-02-26T02:08:29;97740;;;4.14;83.42
51195;BME280;37259;49.972;19.850;2024-02-26T02:09:29;97738.3333333333;;;4.13;83.35
51195;BME280;37259;49.972;19.850;2024-02-26T02:10:29;97735;;;4.11;83.25
51195;BME280;37259;49.972;19.850;2024-02-26T02:11:29;97738.3333333333;;;4.11;83.23
51195;BME280;37259;49.972;19.850;2024-02-26T02:12:29;97741.6666666667;;;4.11;83.68
51195;BME280;37259;49.972;19.850;2024-02-26T02:13:29;97741.6666666667;;;4.09;83.59
51195;BME280;37259;49.972;19.850;2024-02-26T02:14:29;97740;;;4.08;84.04
51195;BME280;37259;49.972;19.850;2024-02-26T02:15:29;97741.6666666667;;;4.07;83.8
51195;BME280;37259;49.972;19.850;2024-02-26T02:16:29;97743.3333333333;;;4.06;83.67
51195;BME280;37259;49.972;19.850;2024-02-26T02:17:30;97741.6666666667;;;4.05;83.68
51195;BME280;37259;49.972;19.850;2024-02-26T02:18:29;97743.3333333333;;;4.04;83.72
51195;BME280;37259;49.972;19.850;2024-02-26T02:19:29;97741.6666666667;;;4.04;83.81
51195;BME280;37259;49.972;19.850;2024-02-26T02:20:31;97741.6666666667;;;4.05;84.01
51195;BME280;37259;49.972;19.850;2024-02-26T02:21:29;97741.6666666667;;;4.02;84.07
51195;BME280;37259;49.972;19.850;2024-02-26T02:22:29;97741.6666666667;;;4.02;84.09
51195;BME280;37259;49.972;19.850;2024-02-26T02:23:29;97741.6666666667;;;4;84.02
51195;BME280;37259;49.972;19.850;2024-02-26T02:24:29;97741.6666666667;;;4;84.14
51195;BME280;37259;49.972;19.850;2024-02-26T02:25:29;97745;;;4;84.3
51195;BME280;37259;49.972;19.850;2024-02-26T02:26:29;97745;;;3.98;84.16
51195;BME280;37259;49.972;19.850;2024-02-26T02:27:29;97743.3333333333;;;3.94;84
51195;BME280;37259;49.972;19.850;2024-02-26T02:28:29;97743.3333333333;;;3.94;84.53
51195;BME280;37259;49.972;19.850;2024-02-26T02:29:29;97741.6666666667;;;3.98;85.23
51195;BME280;37259;49.972;19.850;2024-02-26T02:30:30;97743.3333333333;;;3.96;85.12
51195;BME280;37259;49.972;19.850;2024-02-26T02:31:30;97743.3333333333;;;3.95;85.03
51195;BME280;37259;49.972;19.850;2024-02-26T02:32:29;97743.3333333333;;;3.92;85.08
51195;BME280;37259;49.972;19.850;2024-02-26T02:33:29;97746.6666666667;;;3.87;85.06
51195;BME280;37259;49.972;19.850;2024-02-26T02:34:30;97741.6666666667;;;3.85;85.03
51195;BME280;37259;49.972;19.850;2024-02-26T02:35:29;97741.6666666667;;;3.85;85.03
51195;BME280;37259;49.972;19.850;2024-02-26T02:36:29;97745;;;3.86;85.05
51195;BME280;37259;49.972;19.850;2024-02-26T02:37:29;97746.6666666667;;;3.86;84.99
51195;BME280;37259;49.972;19.850;2024-02-26T02:38:29;97746.6666666667;;;3.94;85.76
51195;BME280;37259;49.972;19.850;2024-02-26T02:39:29;97750;;;3.95;85.78
51195;BME280;37259;49.972;19.850;2024-02-26T02:40:29;97750;;;3.96;86.13
51195;BME280;37259;49.972;19.850;2024-02-26T02:41:29;97751.6666666667;;;3.95;85.79
51195;BME280;37259;49.972;19.850;2024-02-26T02:42:29;97753.3333333333;;;3.94;85.56
51195;BME280;37259;49.972;19.850;2024-02-26T02:43:29;97751.6666666667;;;3.96;85.45
51195;BME280;37259;49.972;19.850;2024-02-26T02:44:29;97751.6666666667;;;3.94;85.43
51195;BME280;37259;49.972;19.850;2024-02-26T02:45:29;97755;;;3.94;85.45
51195;BME280;37259;49.972;19.850;2024-02-26T02:46:29;97755;;;3.91;85.2
51195;BME280;37259;49.972;19.850;2024-02-26T02:47:29;97753.3333333333;;;3.89;85.14
51195;BME280;37259;49.972;19.850;2024-02-26T02:48:29;97755;;;3.89;85.18
51195;BME280;37259;49.972;19.850;2024-02-26T02:49:29;97753.3333333333;;;3.88;85.12
51195;BME280;37259;49.972;19.850;2024-02-26T02:50:29;97751.6666666667;;;3.91;85.13
51195;BME280;37259;49.972;19.850;2024-02-26T02:51:29;97753.3333333333;;;3.89;85.34
51195;BME280;37259;49.972;19.850;2024-02-26T02:52:29;97753.3333333333;;;3.87;85.14
51195;BME280;37259;49.972;19.850;2024-02-26T02:53:29;97755;;;3.86;84.98
51195;BME280;37259;49.972;19.850;2024-02-26T02:54:29;97750;;;3.85;84.89
51195;BME280;37259;49.972;19.850;2024-02-26T02:55:29;97751.6666666667;;;3.85;84.84
51195;BME280;37259;49.972;19.850;2024-02-26T02:56:29;97751.6666666667;;;3.82;85.12
51195;BME280;37259;49.972;19.850;2024-02-26T02:57:30;97750;;;3.75;85.44
51195;BME280;37259;49.972;19.850;2024-02-26T02:58:29;97748.3333333333;;;3.75;85.2
51195;BME280;37259;49.972;19.850;2024-02-26T02:59:29;97750;;;3.75;85.18
51195;BME280;37259;49.972;19.850;2024-02-26T03:00:29;97746.6666666667;;;3.74;85.4
51195;BME280;37259;49.972;19.850;2024-02-26T03:01:29;97746.6666666667;;;3.75;85.41
51195;BME280;37259;49.972;19.850;2024-02-26T03:02:30;97750;;;3.75;85.81
51195;BME280;37259;49.972;19.850;2024-02-26T03:03:30;97748.3333333333;;;3.75;85.8
51195;BME280;37259;49.972;19.850;2024-02-26T03:04:29;97751.6666666667;;;3.74;86.07
51195;BME280;37259;49.972;19.850;2024-02-26T03:05:29;97751.6666666667;;;3.72;86.03
51195;BME280;37259;49.972;19.850;2024-02-26T03:06:29;97750;;;3.74;85.95
51195;BME280;37259;49.972;19.850;2024-02-26T03:07:30;97748.3333333333;;;3.73;85.89
51195;BME280;37259;49.972;19.850;2024-02-26T03:08:29;97745;;;3.75;85.92
51195;BME280;37259;49.972;19.850;2024-02-26T03:09:29;97746.6666666667;;;3.76;86.05
51195;BME280;37259;49.972;19.850;2024-02-26T03:10:29;97746.6666666667;;;3.76;85.77
51195;BME280;37259;49.972;19.850;2024-02-26T03:11:29;97751.6666666667;;;3.76;85.77
51195;BME280;37259;49.972;19.850;2024-02-26T03:12:29;97751.6666666667;;;3.74;85.45
51195;BME280;37259;49.972;19.850;2024-02-26T03:13:29;97751.6666666667;;;3.57;85.27
51195;BME280;37259;49.972;19.850;2024-02-26T03:14:29;97753.3333333333;;;3.53;85.27
51195;BME280;37259;49.972;19.850;2024-02-26T03:15:30;97751.6666666667;;;3.49;85.3
51195;BME280;37259;49.972;19.850;2024-02-26T03:16:29;97751.6666666667;;;3.51;85.28
51195;BME280;37259;49.972;19.850;2024-02-26T03:17:29;97751.6666666667;;;3.49;85.23
51195;BME280;37259;49.972;19.850;2024-02-26T03:18:29;97751.6666666667;;;3.51;85.06
51195;BME280;37259;49.972;19.850;2024-02-26T03:19:29;97750;;;3.47;84.98
51195;BME280;37259;49.972;19.850;2024-02-26T03:20:29;97746.6666666667;;;3.38;85.12
51195;BME280;37259;49.972;19.850;2024-02-26T03:21:29;97741.6666666667;;;3.39;85.2
51195;BME280;37259;49.972;19.850;2024-02-26T03:22:29;97740;;;3.39;85.14
51195;BME280;37259;49.972;19.850;2024-02-26T03:23:29;97735;;;3.36;85.04
51195;BME280;37259;49.972;19.850;2024-02-26T03:24:29;97733.3333333333;;;3.34;85.07
51195;BME280;37259;49.972;19.850;2024-02-26T03:25:29;97736.6666666667;;;3.29;84.98
51195;BME280;37259;49.972;19.850;2024-02-26T03:26:29;97735;;;3.26;85.23
51195;BME280;37259;49.972;19.850;2024-02-26T03:27:29;97736.6666666667;;;3.24;85.59
51195;BME280;37259;49.972;19.850;2024-02-26T03:28:29;97733.3333333333;;;3.2;85.6
51195;BME280;37259;49.972;19.850;2024-02-26T03:29:29;97733.3333333333;;;3.19;85.54
51195;BME280;37259;49.972;19.850;2024-02-26T03:30:29;97735;;;3.18;85.47
51195;BME280;37259;49.972;19.850;2024-02-26T03:31:29;97731.6666666667;;;3.16;85.45
51195;BME280;37259;49.972;19.850;2024-02-26T03:32:29;97731.6666666667;;;3.17;85.64
51195;BME280;37259;49.972;19.850;2024-02-26T03:33:29;97731.6666666667;;;3.15;85.74
51195;BME280;37259;49.972;19.850;2024-02-26T03:34:29;97730;;;3.13;85.75
51195;BME280;37259;49.972;19.850;2024-02-26T03:35:29;97730;;;3.12;85.73
51195;BME280;37259;49.972;19.850;2024-02-26T03:36:29;97726.6666666667;;;3.12;85.76
51195;BME280;37259;49.972;19.850;2024-02-26T03:37:29;97726.6666666667;;;3.1;85.74
51195;BME280;37259;49.972;19.850;2024-02-26T03:38:30;97723.3333333333;;;3.1;85.77
51195;BME280;37259;49.972;19.850;2024-02-26T03:39:30;97721.6666666667;;;3.11;85.76
51195;BME280;37259;49.972;19.850;2024-02-26T03:40:29;97721.6666666667;;;3.09;85.68
51195;BME280;37259;49.972;19.850;2024-02-26T03:41:29;97721.6666666667;;;3.07;85.71
51195;BME280;37259;49.972;19.850;2024-02-26T03:42:29;97720;;;3.06;85.81
51195;BME280;37259;49.972;19.850;2024-02-26T03:43:29;97716.6666666667;;;3.03;85.76
51195;BME280;37259;49.972;19.850;2024-02-26T03:44:29;97715;;;3.03;85.78
51195;BME280;37259;49.972;19.850;2024-02-26T03:45:29;97713.3333333333;;;3.02;85.81
51195;BME280;37259;49.972;19.850;2024-02-26T03:46:29;97711.6666666667;;;3.03;85.86
51195;BME280;37259;49.972;19.850;2024-02-26T03:47:29;97710;;;3.03;85.89
51195;BME280;37259;49.972;19.850;2024-02-26T03:48:29;97711.6666666667;;;3.02;85.84
51195;BME280;37259;49.972;19.850;2024-02-26T03:49:29;97711.6666666667;;;3;85.89
51195;BME280;37259;49.972;19.850;2024-02-26T03:50:29;97711.6666666667;;;3.01;85.99
51195;BME280;37259;49.972;19.850;2024-02-26T03:51:29;97713.3333333333;;;2.99;86.08
51195;BME280;37259;49.972;19.850;2024-02-26T03:52:29;97715;;;2.98;86.05
51195;BME280;37259;49.972;19.850;2024-02-26T03:53:29;97713.3333333333;;;3.01;86.05
51195;BME280;37259;49.972;19.850;2024-02-26T03:54:29;97716.6666666667;;;2.98;86.09
51195;BME280;37259;49.972;19.850;2024-02-26T03:55:29;97713.3333333333;;;3.02;86.24
51195;BME280;37259;49.972;19.850;2024-02-26T03:56:30;97713.3333333333;;;2.99;86.39
51195;BME280;37259;49.972;19.850;2024-02-26T03:57:29;97713.3333333333;;;2.99;86.59
51195;BME280;37259;49.972;19.850;2024-02-26T03:58:29;97713.3333333333;;;3.02;86.76
51195;BME280;37259;49.972;19.850;2024-02-26T03:59:29;97711.6666666667;;;3.01;86.82
51195;BME280;37259;49.972;19.850;2024-02-26T04:00:29;97710;;;2.99;86.73
51195;BME280;37259;49.972;19.850;2024-02-26T04:01:29;97711.6666666667;;;2.99;86.76
51195;BME280;37259;49.972;19.850;2024-02-26T04:02:29;97711.6666666667;;;2.95;86.71
51195;BME280;37259;49.972;19.850;2024-02-26T04:03:30;97708.3333333333;;;2.96;86.91
51195;BME280;37259;49.972;19.850;2024-02-26T04:04:29;97711.6666666667;;;2.95;86.89
51195;BME280;37259;49.972;19.850;2024-02-26T04:05:29;97710;;;2.88;86.46
51195;BME280;37259;49.972;19.850;2024-02-26T04:06:29;97708.3333333333;;;2.86;86.55
51195;BME280;37259;49.972;19.850;2024-02-26T04:07:30;97703.3333333333;;;2.88;87.05
51195;BME280;37259;49.972;19.850;2024-02-26T04:08:29;97700;;;2.92;87.48
51195;BME280;37259;49.972;19.850;2024-02-26T04:09:30;97696.6666666667;;;2.92;87.55
51195;BME280;37259;49.972;19.850;2024-02-26T04:10:29;97698.3333333333;;;2.95;87.68
51195;BME280;37259;49.972;19.850;2024-02-26T04:11:29;97698.3333333333;;;2.92;87.4
51195;BME280;37259;49.972;19.850;2024-02-26T04:12:29;97698.3333333333;;;2.88;87.35
51195;BME280;37259;49.972;19.850;2024-02-26T04:13:29;97696.6666666667;;;2.87;87.38
51195;BME280;37259;49.972;19.850;2024-02-26T04:14:29;97691.6666666667;;;2.87;87.34
51195;BME280;37259;49.972;19.850;2024-02-26T04:15:29;97690;;;2.83;87.42
51195;BME280;37259;49.972;19.850;2024-02-26T04:16:29;97690;;;2.87;87.51
51195;BME280;37259;49.972;19.850;2024-02-26T04:17:29;97690;;;2.91;87.74
51195;BME280;37259;49.972;19.850;2024-02-26T04:18:29;97690;;;2.9;87.66
51195;BME280;37259;49.972;19.850;2024-02-26T04:19:29;97686.6666666667;;;2.91;87.58
51195;BME280;37259;49.972;19.850;2024-02-26T04:20:29;97685;;;2.92;87.69
51195;BME280;37259;49.972;19.850;2024-02-26T04:21:29;97685;;;2.91;87.63
51195;BME280;37259;49.972;19.850;2024-02-26T04:22:29;97686.6666666667;;;2.96;87.88
51195;BME280;37259;49.972;19.850;2024-02-26T04:23:29;97683.3333333333;;;2.96;87.78
51195;BME280;37259;49.972;19.850;2024-02-26T04:24:30;97681.6666666667;;;2.97;87.74
51195;BME280;37259;49.972;19.850;2024-02-26T04:25:29;97686.6666666667;;;2.94;87.64
51195;BME280;37259;49.972;19.850;2024-02-26T04:26:29;97688.3333333333;;;2.93;87.21
51195;BME280;37259;49.972;19.850;2024-02-26T04:27:30;97690;;;2.91;86.99
51195;BME280;37259;49.972;19.850;2024-02-26T04:28:29;97688.3333333333;;;2.86;86.77
51195;BME280;37259;49.972;19.850;2024-02-26T04:29:29;97690;;;2.78;86.87
51195;BME280;37259;49.972;19.850;2024-02-26T04:30:29;97690;;;2.71;86.75
51195;BME280;37259;49.972;19.850;2024-02-26T04:31:29;97691.6666666667;;;2.68;86.66
51195;BME280;37259;49.972;19.850;2024-02-26T04:32:30;97696.6666666667;;;2.65;86.69
51195;BME280;37259;49.972;19.850;2024-02-26T04:33:30;97700;;;2.62;86.7
51195;BME280;37259;49.972;19.850;2024-02-26T04:34:29;97700;;;2.59;86.59
51195;BME280;37259;49.972;19.850;2024-02-26T04:35:30;97701.6666666667;;;2.54;86.67
51195;BME280;37259;49.972;19.850;2024-02-26T04:36:29;97700;;;2.49;86.6
51195;BME280;37259;49.972;19.850;2024-02-26T04:37:30;97700;;;2.52;86.85
51195;BME280;37259;49.972;19.850;2024-02-26T04:38:29;97691.6666666667;;;2.53;86.84
51195;BME280;37259;49.972;19.850;2024-02-26T04:39:30;97690;;;2.54;86.88
51195;BME280;37259;49.972;19.850;2024-02-26T04:40:29;97690;;;2.52;86.75
51195;BME280;37259;49.972;19.850;2024-02-26T04:41:30;97690;;;2.49;86.67
51195;BME280;37259;49.972;19.850;2024-02-26T04:42:29;97690;;;2.49;86.67
51195;BME280;37259;49.972;19.850;2024-02-26T04:43:29;97686.6666666667;;;2.49;86.6
51195;BME280;37259;49.972;19.850;2024-02-26T04:44:30;97683.3333333333;;;2.49;86.54
51195;BME280;37259;49.972;19.850;2024-02-26T04:45:30;97680;;;2.49;86.71
51195;BME280;37259;49.972;19.850;2024-02-26T04:46:29;97680;;;2.47;86.86
51195;BME280;37259;49.972;19.850;2024-02-26T04:47:29;97680;;;2.46;87
51195;BME280;37259;49.972;19.850;2024-02-26T04:48:29;97676.6666666667;;;2.45;87.41
51195;BME280;37259;49.972;19.850;2024-02-26T04:49:29;97673.3333333333;;;2.48;87.56
51195;BME280;37259;49.972;19.850;2024-02-26T04:50:29;97670;;;2.47;87.8
51195;BME280;37259;49.972;19.850;2024-02-26T04:51:30;97671.6666666667;;;2.45;87.75
51195;BME280;37259;49.972;19.850;2024-02-26T04:52:30;97670;;;2.44;87.72
51195;BME280;37259;49.972;19.850;2024-02-26T04:53:30;97671.6666666667;;;2.41;87.62
51195;BME280;37259;49.972;19.850;2024-02-26T04:54:30;97671.6666666667;;;2.41;87.56
51195;BME280;37259;49.972;19.850;2024-02-26T04:55:29;97670;;;2.4;87.51
51195;BME280;37259;49.972;19.850;2024-02-26T04:56:30;97671.6666666667;;;2.41;87.48
51195;BME280;37259;49.972;19.850;2024-02-26T04:57:32;97670;;;2.38;87.26
51195;BME280;37259;49.972;19.850;2024-02-26T04:58:29;97675;;;2.36;87.15
51195;BME280;37259;49.972;19.850;2024-02-26T04:59:30;97680;;;2.33;87.25
51195;BME280;37259;49.972;19.850;2024-02-26T05:00:30;97681.6666666667;;;2.32;87.22
51195;BME280;37259;49.972;19.850;2024-02-26T05:01:29;97683.3333333333;;;2.29;87.21
51195;BME280;37259;49.972;19.850;2024-02-26T05:02:29;97688.3333333333;;;2.3;87.18